sensor_id;sensor_type;location;lat;lon;timestamp;P1;durP1;ratioP1;P2;durP2;ratioP2
49440;SDS011;35317;51.978;6.296;2023-04-21T00:02:14;19.23;;;8.93;;
49440;SDS011;35317;51.978;6.296;2023-04-21T00:07:16;23.25;;;9.43;;
49440;SDS011;35317;51.978;6.296;2023-04-21T00:12:18;18.67;;;9.23;;
49440;SDS011;35317;51.978;6.296;2023-04-21T00:17:19;21.30;;;9.82;;
49440;SDS011;35317;51.978;6.296;2023-04-21T00:22:20;19.25;;;9.18;;
49440;SDS011;35317;51.978;6.296;2023-04-21T00:27:21;18.65;;;8.85;;
49440;SDS011;35317;51.978;6.296;2023-04-21T00:32:22;23.13;;;9.95;;
49440;SDS011;35317;51.978;6.296;2023-04-21T00:37:23;21.98;;;9.75;;
49440;SDS011;35317;51.978;6.296;2023-04-21T00:42:24;20.20;;;8.88;;
49440;SDS011;35317;51.978;6.296;2023-04-21T00:47:25;21.70;;;9.55;;
49440;SDS011;35317;51.978;6.296;2023-04-21T00:52:26;21.45;;;9.65;;
49440;SDS011;35317;51.978;6.296;2023-04-21T00:57:28;23.75;;;11.18;;
49440;SDS011;35317;51.978;6.296;2023-04-21T01:02:31;25.88;;;10.45;;
49440;SDS011;35317;51.978;6.296;2023-04-21T01:07:34;23.53;;;10.50;;
49440;SDS011;35317;51.978;6.296;2023-04-21T01:12:44;24.73;;;10.25;;
49440;SDS011;35317;51.978;6.296;2023-04-21T01:17:46;23.20;;;10.80;;
49440;SDS011;35317;51.978;6.296;2023-04-21T01:22:48;20.23;;;10.25;;
49440;SDS011;35317;51.978;6.296;2023-04-21T01:27:50;23.80;;;10.93;;
49440;SDS011;35317;51.978;6.296;2023-04-21T01:32:51;23.45;;;10.52;;
49440;SDS011;35317;51.978;6.296;2023-04-21T01:37:52;25.45;;;10.93;;
49440;SDS011;35317;51.978;6.296;2023-04-21T01:42:53;28.48;;;11.43;;
49440;SDS011;35317;51.978;6.296;2023-04-21T01:47:53;24.20;;;11.10;;
49440;SDS011;35317;51.978;6.296;2023-04-21T01:52:54;24.10;;;10.95;;
49440;SDS011;35317;51.978;6.296;2023-04-21T01:57:55;26.52;;;11.40;;
49440;SDS011;35317;51.978;6.296;2023-04-21T02:02:59;26.43;;;12.03;;
49440;SDS011;35317;51.978;6.296;2023-04-21T02:07:59;24.38;;;11.38;;
49440;SDS011;35317;51.978;6.296;2023-04-21T02:13:00;24.42;;;11.07;;
49440;SDS011;35317;51.978;6.296;2023-04-21T02:18:01;26.75;;;10.55;;
49440;SDS011;35317;51.978;6.296;2023-04-21T02:23:02;26.10;;;11.40;;
49440;SDS011;35317;51.978;6.296;2023-04-21T02:28:02;24.38;;;11.02;;
49440;SDS011;35317;51.978;6.296;2023-04-21T02:33:03;28.40;;;11.75;;
49440;SDS011;35317;51.978;6.296;2023-04-21T02:38:04;24.23;;;10.95;;
49440;SDS011;35317;51.978;6.296;2023-04-21T02:43:07;23.63;;;11.03;;
49440;SDS011;35317;51.978;6.296;2023-04-21T02:48:08;27.88;;;12.02;;
49440;SDS011;35317;51.978;6.296;2023-04-21T02:53:09;27.58;;;11.07;;
49440;SDS011;35317;51.978;6.296;2023-04-21T02:58:09;27.00;;;11.05;;
49440;SDS011;35317;51.978;6.296;2023-04-21T03:03:10;28.05;;;11.55;;
49440;SDS011;35317;51.978;6.296;2023-04-21T03:08:11;30.58;;;12.05;;
49440;SDS011;35317;51.978;6.296;2023-04-21T03:13:12;29.85;;;13.60;;
49440;SDS011;35317;51.978;6.296;2023-04-21T03:18:13;28.95;;;12.40;;
49440;SDS011;35317;51.978;6.296;2023-04-21T03:23:14;29.50;;;12.18;;
49440;SDS011;35317;51.978;6.296;2023-04-21T03:28:15;31.27;;;12.15;;
49440;SDS011;35317;51.978;6.296;2023-04-21T03:33:16;26.23;;;11.32;;
49440;SDS011;35317;51.978;6.296;2023-04-21T03:38:17;26.23;;;11.32;;
49440;SDS011;35317;51.978;6.296;2023-04-21T03:43:18;29.65;;;12.68;;
49440;SDS011;35317;51.978;6.296;2023-04-21T03:48:19;29.98;;;12.57;;
49440;SDS011;35317;51.978;6.296;2023-04-21T03:53:19;30.23;;;12.88;;
49440;SDS011;35317;51.978;6.296;2023-04-21T03:58:20;33.88;;;13.02;;
49440;SDS011;35317;51.978;6.296;2023-04-21T04:03:21;33.78;;;12.40;;
49440;SDS011;35317;51.978;6.296;2023-04-21T04:08:22;31.55;;;12.73;;
49440;SDS011;35317;51.978;6.296;2023-04-21T04:13:23;30.80;;;12.13;;
49440;SDS011;35317;51.978;6.296;2023-04-21T04:18:25;32.13;;;11.90;;
49440;SDS011;35317;51.978;6.296;2023-04-21T04:23:26;28.73;;;11.90;;
49440;SDS011;35317;51.978;6.296;2023-04-21T04:28:26;34.47;;;12.90;;
49440;SDS011;35317;51.978;6.296;2023-04-21T04:33:28;30.63;;;12.43;;
49440;SDS011;35317;51.978;6.296;2023-04-21T04:38:28;28.77;;;12.00;;
49440;SDS011;35317;51.978;6.296;2023-04-21T04:43:29;34.13;;;13.15;;
49440;SDS011;35317;51.978;6.296;2023-04-21T04:48:32;30.15;;;12.35;;
49440;SDS011;35317;51.978;6.296;2023-04-21T04:53:33;37.00;;;12.07;;
49440;SDS011;35317;51.978;6.296;2023-04-21T04:58:34;31.00;;;12.55;;
49440;SDS011;35317;51.978;6.296;2023-04-21T05:03:35;30.58;;;12.65;;
49440;SDS011;35317;51.978;6.296;2023-04-21T05:08:35;37.47;;;13.15;;
49440;SDS011;35317;51.978;6.296;2023-04-21T05:13:36;35.60;;;12.77;;
49440;SDS011;35317;51.978;6.296;2023-04-21T05:18:37;33.05;;;12.75;;
49440;SDS011;35317;51.978;6.296;2023-04-21T05:23:38;33.30;;;13.20;;
49440;SDS011;35317;51.978;6.296;2023-04-21T05:28:38;30.10;;;12.30;;
49440;SDS011;35317;51.978;6.296;2023-04-21T05:33:39;26.38;;;11.30;;
49440;SDS011;35317;51.978;6.296;2023-04-21T05:38:40;28.02;;;12.48;;
49440;SDS011;35317;51.978;6.296;2023-04-21T05:43:41;31.15;;;13.05;;
49440;SDS011;35317;51.978;6.296;2023-04-21T05:48:42;30.40;;;12.82;;
49440;SDS011;35317;51.978;6.296;2023-04-21T05:53:43;29.33;;;13.18;;
49440;SDS011;35317;51.978;6.296;2023-04-21T05:58:44;31.33;;;13.15;;
49440;SDS011;35317;51.978;6.296;2023-04-21T06:03:45;29.48;;;12.38;;
49440;SDS011;35317;51.978;6.296;2023-04-21T06:08:49;31.00;;;13.87;;
49440;SDS011;35317;51.978;6.296;2023-04-21T06:13:49;32.53;;;14.05;;
49440;SDS011;35317;51.978;6.296;2023-04-21T06:18:52;28.90;;;13.80;;
49440;SDS011;35317;51.978;6.296;2023-04-21T06:23:53;32.38;;;13.90;;
49440;SDS011;35317;51.978;6.296;2023-04-21T06:28:54;30.63;;;13.43;;
49440;SDS011;35317;51.978;6.296;2023-04-21T06:33:55;30.63;;;13.88;;
49440;SDS011;35317;51.978;6.296;2023-04-21T06:38:55;34.33;;;14.45;;
49440;SDS011;35317;51.978;6.296;2023-04-21T06:43:56;31.15;;;14.05;;
49440;SDS011;35317;51.978;6.296;2023-04-21T06:48:57;31.17;;;15.25;;
49440;SDS011;35317;51.978;6.296;2023-04-21T06:53:58;29.30;;;14.45;;
49440;SDS011;35317;51.978;6.296;2023-04-21T06:59:00;31.55;;;14.45;;
49440;SDS011;35317;51.978;6.296;2023-04-21T07:04:00;30.65;;;14.10;;
49440;SDS011;35317;51.978;6.296;2023-04-21T07:09:01;28.92;;;13.90;;
49440;SDS011;35317;51.978;6.296;2023-04-21T07:14:02;31.77;;;14.48;;
49440;SDS011;35317;51.978;6.296;2023-04-21T07:19:03;33.58;;;15.65;;
49440;SDS011;35317;51.978;6.296;2023-04-21T07:24:04;28.92;;;14.57;;
49440;SDS011;35317;51.978;6.296;2023-04-21T07:29:05;32.67;;;15.32;;
49440;SDS011;35317;51.978;6.296;2023-04-21T07:34:05;30.05;;;14.40;;
49440;SDS011;35317;51.978;6.296;2023-04-21T07:39:06;33.25;;;15.00;;
49440;SDS011;35317;51.978;6.296;2023-04-21T07:44:07;30.67;;;15.23;;
49440;SDS011;35317;51.978;6.296;2023-04-21T07:49:08;34.17;;;15.90;;
49440;SDS011;35317;51.978;6.296;2023-04-21T07:54:09;31.13;;;14.98;;
49440;SDS011;35317;51.978;6.296;2023-04-21T07:59:10;25.83;;;14.48;;
49440;SDS011;35317;51.978;6.296;2023-04-21T08:04:10;29.17;;;14.85;;
49440;SDS011;35317;51.978;6.296;2023-04-21T08:09:11;27.50;;;14.80;;
49440;SDS011;35317;51.978;6.296;2023-04-21T08:14:12;30.02;;;14.35;;
49440;SDS011;35317;51.978;6.296;2023-04-21T08:19:13;27.45;;;14.25;;
49440;SDS011;35317;51.978;6.296;2023-04-21T08:24:14;28.58;;;15.75;;
49440;SDS011;35317;51.978;6.296;2023-04-21T08:29:14;26.58;;;14.63;;
49440;SDS011;35317;51.978;6.296;2023-04-21T08:34:15;26.75;;;14.98;;
49440;SDS011;35317;51.978;6.296;2023-04-21T08:39:16;28.48;;;14.65;;
49440;SDS011;35317;51.978;6.296;2023-04-21T08:44:17;24.70;;;13.60;;
49440;SDS011;35317;51.978;6.296;2023-04-21T08:49:19;25.90;;;14.32;;
49440;SDS011;35317;51.978;6.296;2023-04-21T08:54:20;24.73;;;14.00;;
49440;SDS011;35317;51.978;6.296;2023-04-21T08:59:21;26.88;;;13.90;;
49440;SDS011;35317;51.978;6.296;2023-04-21T09:04:22;21.88;;;12.93;;
49440;SDS011;35317;51.978;6.296;2023-04-21T09:09:23;24.38;;;13.40;;
49440;SDS011;35317;51.978;6.296;2023-04-21T09:14:33;26.58;;;14.63;;
49440;SDS011;35317;51.978;6.296;2023-04-21T09:19:34;22.00;;;12.98;;
49440;SDS011;35317;51.978;6.296;2023-04-21T09:24:35;23.80;;;13.63;;
49440;SDS011;35317;51.978;6.296;2023-04-21T09:29:36;26.02;;;13.80;;
49440;SDS011;35317;51.978;6.296;2023-04-21T09:34:37;24.15;;;13.38;;
49440;SDS011;35317;51.978;6.296;2023-04-21T09:39:45;23.38;;;14.20;;
49440;SDS011;35317;51.978;6.296;2023-04-21T09:44:46;20.80;;;13.20;;
49440;SDS011;35317;51.978;6.296;2023-04-21T09:49:48;23.65;;;13.43;;
49440;SDS011;35317;51.978;6.296;2023-04-21T09:54:56;25.27;;;13.43;;
49440;SDS011;35317;51.978;6.296;2023-04-21T10:00:02;24.17;;;13.73;;
49440;SDS011;35317;51.978;6.296;2023-04-21T10:05:09;23.30;;;13.55;;
49440;SDS011;35317;51.978;6.296;2023-04-21T10:10:13;23.08;;;13.90;;
49440;SDS011;35317;51.978;6.296;2023-04-21T10:15:31;23.27;;;12.88;;
49440;SDS011;35317;51.978;6.296;2023-04-21T10:26:06;24.80;;;14.02;;
49440;SDS011;35317;51.978;6.296;2023-04-21T10:31:16;22.85;;;13.00;;
49440;SDS011;35317;51.978;6.296;2023-04-21T10:36:22;21.85;;;12.90;;
49440;SDS011;35317;51.978;6.296;2023-04-21T10:41:28;23.67;;;13.75;;
49440;SDS011;35317;51.978;6.296;2023-04-21T10:46:35;22.38;;;13.23;;
49440;SDS011;35317;51.978;6.296;2023-04-21T10:57:05;20.35;;;12.82;;
49440;SDS011;35317;51.978;6.296;2023-04-21T11:02:16;22.83;;;13.02;;
49440;SDS011;35317;51.978;6.296;2023-04-21T11:07:19;22.92;;;14.02;;
49440;SDS011;35317;51.978;6.296;2023-04-21T11:12:25;23.42;;;13.00;;
49440;SDS011;35317;51.978;6.296;2023-04-21T11:17:28;23.70;;;13.13;;
49440;SDS011;35317;51.978;6.296;2023-04-21T11:22:29;21.08;;;12.13;;
49440;SDS011;35317;51.978;6.296;2023-04-21T11:27:30;19.05;;;12.05;;
49440;SDS011;35317;51.978;6.296;2023-04-21T11:32:31;20.63;;;12.55;;
49440;SDS011;35317;51.978;6.296;2023-04-21T11:37:31;23.17;;;12.52;;
49440;SDS011;35317;51.978;6.296;2023-04-21T11:42:32;19.52;;;11.73;;
49440;SDS011;35317;51.978;6.296;2023-04-21T11:47:33;17.80;;;11.65;;
49440;SDS011;35317;51.978;6.296;2023-04-21T11:52:39;19.70;;;11.60;;
49440;SDS011;35317;51.978;6.296;2023-04-21T11:57:41;20.95;;;11.77;;
49440;SDS011;35317;51.978;6.296;2023-04-21T12:02:42;23.23;;;11.43;;
49440;SDS011;35317;51.978;6.296;2023-04-21T12:07:44;18.77;;;11.23;;
49440;SDS011;35317;51.978;6.296;2023-04-21T12:17:49;17.38;;;11.32;;
49440;SDS011;35317;51.978;6.296;2023-04-21T12:22:52;15.65;;;10.10;;
49440;SDS011;35317;51.978;6.296;2023-04-21T12:27:56;16.25;;;9.63;;
49440;SDS011;35317;51.978;6.296;2023-04-21T12:32:57;17.58;;;10.40;;
49440;SDS011;35317;51.978;6.296;2023-04-21T12:37:58;15.68;;;9.95;;
49440;SDS011;35317;51.978;6.296;2023-04-21T12:42:59;17.83;;;9.88;;
49440;SDS011;35317;51.978;6.296;2023-04-21T12:48:00;15.13;;;9.07;;
49440;SDS011;35317;51.978;6.296;2023-04-21T12:53:02;16.77;;;9.90;;
49440;SDS011;35317;51.978;6.296;2023-04-21T12:58:03;18.23;;;10.70;;
49440;SDS011;35317;51.978;6.296;2023-04-21T13:03:04;14.25;;;9.00;;
49440;SDS011;35317;51.978;6.296;2023-04-21T13:08:05;17.20;;;9.95;;
49440;SDS011;35317;51.978;6.296;2023-04-21T13:13:06;13.73;;;8.43;;
49440;SDS011;35317;51.978;6.296;2023-04-21T13:18:09;12.73;;;8.47;;
49440;SDS011;35317;51.978;6.296;2023-04-21T13:23:10;13.43;;;9.20;;
49440;SDS011;35317;51.978;6.296;2023-04-21T13:28:13;16.23;;;9.70;;
49440;SDS011;35317;51.978;6.296;2023-04-21T13:33:14;14.75;;;8.93;;
49440;SDS011;35317;51.978;6.296;2023-04-21T13:43:42;15.18;;;9.57;;
49440;SDS011;35317;51.978;6.296;2023-04-21T13:48:43;16.13;;;9.52;;
49440;SDS011;35317;51.978;6.296;2023-04-21T13:53:44;15.63;;;10.10;;
49440;SDS011;35317;51.978;6.296;2023-04-21T13:58:54;16.35;;;10.70;;
49440;SDS011;35317;51.978;6.296;2023-04-21T14:03:55;15.30;;;9.93;;
49440;SDS011;35317;51.978;6.296;2023-04-21T14:08:56;15.02;;;10.00;;
49440;SDS011;35317;51.978;6.296;2023-04-21T14:13:57;15.77;;;9.77;;
49440;SDS011;35317;51.978;6.296;2023-04-21T14:18:58;18.88;;;9.98;;
49440;SDS011;35317;51.978;6.296;2023-04-21T14:23:59;15.35;;;10.50;;
49440;SDS011;35317;51.978;6.296;2023-04-21T14:29:00;15.40;;;10.02;;
49440;SDS011;35317;51.978;6.296;2023-04-21T14:34:01;16.80;;;10.50;;
49440;SDS011;35317;51.978;6.296;2023-04-21T14:39:02;16.27;;;9.63;;
49440;SDS011;35317;51.978;6.296;2023-04-21T14:44:02;14.18;;;9.43;;
49440;SDS011;35317;51.978;6.296;2023-04-21T14:49:03;14.73;;;9.10;;
49440;SDS011;35317;51.978;6.296;2023-04-21T14:54:04;15.40;;;9.10;;
49440;SDS011;35317;51.978;6.296;2023-04-21T14:59:05;14.23;;;10.30;;
49440;SDS011;35317;51.978;6.296;2023-04-21T15:04:06;12.63;;;8.85;;
49440;SDS011;35317;51.978;6.296;2023-04-21T15:09:07;13.45;;;9.25;;
49440;SDS011;35317;51.978;6.296;2023-04-21T15:14:07;13.02;;;9.15;;
49440;SDS011;35317;51.978;6.296;2023-04-21T15:19:08;13.20;;;8.98;;
49440;SDS011;35317;51.978;6.296;2023-04-21T15:24:10;13.45;;;9.23;;
49440;SDS011;35317;51.978;6.296;2023-04-21T15:29:10;14.15;;;8.55;;
49440;SDS011;35317;51.978;6.296;2023-04-21T15:34:11;12.23;;;8.70;;
49440;SDS011;35317;51.978;6.296;2023-04-21T15:39:12;13.10;;;8.70;;
49440;SDS011;35317;51.978;6.296;2023-04-21T15:44:13;15.88;;;9.38;;
49440;SDS011;35317;51.978;6.296;2023-04-21T15:49:13;13.57;;;9.18;;
49440;SDS011;35317;51.978;6.296;2023-04-21T15:54:14;14.00;;;8.88;;
49440;SDS011;35317;51.978;6.296;2023-04-21T15:59:15;14.27;;;8.98;;
49440;SDS011;35317;51.978;6.296;2023-04-21T16:04:16;13.90;;;9.30;;
49440;SDS011;35317;51.978;6.296;2023-04-21T16:09:17;13.50;;;8.93;;
49440;SDS011;35317;51.978;6.296;2023-04-21T16:14:20;15.43;;;9.53;;
49440;SDS011;35317;51.978;6.296;2023-04-21T16:19:48;15.95;;;9.15;;
49440;SDS011;35317;51.978;6.296;2023-04-21T16:24:49;12.98;;;8.70;;
49440;SDS011;35317;51.978;6.296;2023-04-21T16:29:51;13.40;;;9.18;;
49440;SDS011;35317;51.978;6.296;2023-04-21T16:34:53;12.40;;;9.07;;
49440;SDS011;35317;51.978;6.296;2023-04-21T16:39:54;12.65;;;8.50;;
49440;SDS011;35317;51.978;6.296;2023-04-21T16:44:55;12.98;;;8.35;;
49440;SDS011;35317;51.978;6.296;2023-04-21T16:49:58;13.50;;;8.93;;
49440;SDS011;35317;51.978;6.296;2023-04-21T16:54:59;13.05;;;8.48;;
49440;SDS011;35317;51.978;6.296;2023-04-21T17:00:00;14.10;;;8.80;;
49440;SDS011;35317;51.978;6.296;2023-04-21T17:05:03;15.18;;;9.50;;
49440;SDS011;35317;51.978;6.296;2023-04-21T17:10:05;14.80;;;9.35;;
49440;SDS011;35317;51.978;6.296;2023-04-21T17:15:06;14.40;;;9.55;;
49440;SDS011;35317;51.978;6.296;2023-04-21T17:20:08;13.07;;;8.80;;
49440;SDS011;35317;51.978;6.296;2023-04-21T17:30:12;16.17;;;9.07;;
49440;SDS011;35317;51.978;6.296;2023-04-21T17:35:13;15.23;;;9.50;;
49440;SDS011;35317;51.978;6.296;2023-04-21T17:40:14;14.48;;;9.10;;
49440;SDS011;35317;51.978;6.296;2023-04-21T17:45:15;17.98;;;9.25;;
49440;SDS011;35317;51.978;6.296;2023-04-21T17:50:16;13.70;;;8.70;;
49440;SDS011;35317;51.978;6.296;2023-04-21T17:55:17;14.90;;;9.38;;
49440;SDS011;35317;51.978;6.296;2023-04-21T18:00:18;14.13;;;9.60;;
49440;SDS011;35317;51.978;6.296;2023-04-21T18:05:19;10.50;;;6.68;;
49440;SDS011;35317;51.978;6.296;2023-04-21T18:10:19;5.15;;;3.53;;
49440;SDS011;35317;51.978;6.296;2023-04-21T18:15:21;3.58;;;2.35;;
49440;SDS011;35317;51.978;6.296;2023-04-21T18:20:22;3.67;;;2.15;;
49440;SDS011;35317;51.978;6.296;2023-04-21T18:25:22;2.80;;;1.85;;
49440;SDS011;35317;51.978;6.296;2023-04-21T18:30:23;2.53;;;1.80;;
49440;SDS011;35317;51.978;6.296;2023-04-21T18:35:24;2.72;;;2.05;;
49440;SDS011;35317;51.978;6.296;2023-04-21T18:40:25;3.67;;;2.33;;
49440;SDS011;35317;51.978;6.296;2023-04-21T18:45:26;3.38;;;2.22;;
49440;SDS011;35317;51.978;6.296;2023-04-21T18:50:27;5.00;;;2.00;;
49440;SDS011;35317;51.978;6.296;2023-04-21T18:55:28;3.97;;;2.58;;
49440;SDS011;35317;51.978;6.296;2023-04-21T19:00:29;3.47;;;2.33;;
49440;SDS011;35317;51.978;6.296;2023-04-21T19:05:31;2.70;;;2.05;;
49440;SDS011;35317;51.978;6.296;2023-04-21T19:10:35;2.92;;;1.88;;
49440;SDS011;35317;51.978;6.296;2023-04-21T19:15:36;3.15;;;2.22;;
49440;SDS011;35317;51.978;6.296;2023-04-21T19:20:37;3.67;;;2.40;;
49440;SDS011;35317;51.978;6.296;2023-04-21T19:25:38;3.33;;;2.40;;
49440;SDS011;35317;51.978;6.296;2023-04-21T19:30:39;4.20;;;2.30;;
49440;SDS011;35317;51.978;6.296;2023-04-21T19:35:40;5.28;;;2.67;;
49440;SDS011;35317;51.978;6.296;2023-04-21T19:40:41;4.15;;;2.60;;
49440;SDS011;35317;51.978;6.296;2023-04-21T19:45:44;5.97;;;2.97;;
49440;SDS011;35317;51.978;6.296;2023-04-21T19:50:46;4.82;;;3.05;;
49440;SDS011;35317;51.978;6.296;2023-04-21T19:55:47;5.35;;;3.50;;
49440;SDS011;35317;51.978;6.296;2023-04-21T20:00:49;5.07;;;3.45;;
49440;SDS011;35317;51.978;6.296;2023-04-21T20:05:50;5.47;;;3.30;;
49440;SDS011;35317;51.978;6.296;2023-04-21T20:10:51;4.75;;;2.97;;
49440;SDS011;35317;51.978;6.296;2023-04-21T20:15:52;5.75;;;4.05;;
49440;SDS011;35317;51.978;6.296;2023-04-21T20:20:52;9.52;;;4.18;;
49440;SDS011;35317;51.978;6.296;2023-04-21T20:25:53;6.90;;;3.85;;
49440;SDS011;35317;51.978;6.296;2023-04-21T20:30:55;8.35;;;5.05;;
49440;SDS011;35317;51.978;6.296;2023-04-21T20:35:56;6.15;;;3.78;;
49440;SDS011;35317;51.978;6.296;2023-04-21T20:40:56;5.18;;;3.42;;
49440;SDS011;35317;51.978;6.296;2023-04-21T20:45:59;4.70;;;2.97;;
49440;SDS011;35317;51.978;6.296;2023-04-21T20:51:00;2.70;;;1.85;;
49440;SDS011;35317;51.978;6.296;2023-04-21T20:56:01;2.75;;;2.00;;
49440;SDS011;35317;51.978;6.296;2023-04-21T21:01:02;4.53;;;2.10;;
49440;SDS011;35317;51.978;6.296;2023-04-21T21:06:03;3.25;;;1.98;;
49440;SDS011;35317;51.978;6.296;2023-04-21T21:11:04;3.40;;;2.17;;
49440;SDS011;35317;51.978;6.296;2023-04-21T21:16:05;3.83;;;2.05;;
49440;SDS011;35317;51.978;6.296;2023-04-21T21:21:06;2.00;;;1.52;;
49440;SDS011;35317;51.978;6.296;2023-04-21T21:26:07;2.17;;;1.67;;
49440;SDS011;35317;51.978;6.296;2023-04-21T21:31:08;3.42;;;1.70;;
49440;SDS011;35317;51.978;6.296;2023-04-21T21:36:08;2.88;;;1.25;;
49440;SDS011;35317;51.978;6.296;2023-04-21T21:41:09;1.40;;;1.17;;
49440;SDS011;35317;51.978;6.296;2023-04-21T21:46:11;2.13;;;1.35;;
49440;SDS011;35317;51.978;6.296;2023-04-21T21:51:12;2.30;;;1.40;;
49440;SDS011;35317;51.978;6.296;2023-04-21T21:56:13;2.45;;;1.55;;
49440;SDS011;35317;51.978;6.296;2023-04-21T22:01:13;4.35;;;1.73;;
49440;SDS011;35317;51.978;6.296;2023-04-21T22:06:36;2.22;;;1.50;;
49440;SDS011;35317;51.978;6.296;2023-04-21T22:11:38;2.03;;;1.50;;
49440;SDS011;35317;51.978;6.296;2023-04-21T22:16:38;3.92;;;1.48;;
49440;SDS011;35317;51.978;6.296;2023-04-21T22:21:45;2.25;;;1.40;;
49440;SDS011;35317;51.978;6.296;2023-04-21T22:27:06;3.17;;;1.75;;
49440;SDS011;35317;51.978;6.296;2023-04-21T22:32:12;3.58;;;2.15;;
49440;SDS011;35317;51.978;6.296;2023-04-21T22:37:12;3.50;;;1.95;;
49440;SDS011;35317;51.978;6.296;2023-04-21T22:42:13;3.92;;;2.35;;
49440;SDS011;35317;51.978;6.296;2023-04-21T22:47:14;3.10;;;2.20;;
49440;SDS011;35317;51.978;6.296;2023-04-21T22:52:15;3.97;;;2.53;;
49440;SDS011;35317;51.978;6.296;2023-04-21T22:57:16;3.28;;;1.92;;
49440;SDS011;35317;51.978;6.296;2023-04-21T23:02:17;2.97;;;2.28;;
49440;SDS011;35317;51.978;6.296;2023-04-21T23:07:18;4.05;;;2.25;;
49440;SDS011;35317;51.978;6.296;2023-04-21T23:12:19;4.15;;;2.03;;
49440;SDS011;35317;51.978;6.296;2023-04-21T23:17:20;2.95;;;1.98;;
49440;SDS011;35317;51.978;6.296;2023-04-21T23:22:21;3.90;;;2.40;;
49440;SDS011;35317;51.978;6.296;2023-04-21T23:27:22;2.85;;;2.00;;
49440;SDS011;35317;51.978;6.296;2023-04-21T23:32:23;4.60;;;2.33;;
49440;SDS011;35317;51.978;6.296;2023-04-21T23:37:24;5.15;;;2.25;;
49440;SDS011;35317;51.978;6.296;2023-04-21T23:42:24;4.22;;;2.72;;
49440;SDS011;35317;51.978;6.296;2023-04-21T23:47:25;4.82;;;2.90;;
49440;SDS011;35317;51.978;6.296;2023-04-21T23:52:26;3.83;;;2.67;;
49440;SDS011;35317;51.978;6.296;2023-04-21T23:57:27;4.47;;;2.45;;
